createdAt,value
2023-01-19T00:03:48.779Z,2.30
2023-01-19T00:07:55.465Z,2.50
2023-01-19T00:12:02.115Z,2.50
2023-01-19T00:16:08.921Z,2.40
2023-01-19T00:20:15.886Z,2.30
2023-01-19T00:24:22.584Z,2.20
2023-01-19T00:28:29.326Z,2.00
2023-01-19T00:32:35.979Z,2.00
2023-01-19T00:36:42.846Z,2.00
2023-01-19T00:40:49.654Z,2.00
2023-01-19T00:44:57.127Z,1.90
2023-01-19T00:49:03.854Z,2.00
2023-01-19T00:53:10.530Z,2.00
2023-01-19T00:57:19.098Z,2.00
2023-01-19T01:01:45.394Z,2.00
2023-01-19T01:05:52.492Z,2.00
2023-01-19T01:09:59.139Z,2.10
2023-01-19T01:14:06.258Z,2.00
2023-01-19T01:18:13.068Z,2.00
2023-01-19T01:22:19.772Z,1.90
2023-01-19T01:26:27.157Z,1.90
2023-01-19T01:30:35.982Z,2.00
2023-01-19T01:34:42.732Z,2.10
2023-01-19T01:38:49.378Z,2.20
2023-01-19T01:42:56.075Z,2.20
2023-01-19T01:47:03.822Z,2.30
2023-01-19T01:51:27.026Z,2.40
2023-01-19T01:55:42.029Z,2.30
2023-01-19T01:59:50.290Z,2.40
2023-01-19T02:03:58.295Z,2.50
2023-01-19T02:08:28.972Z,2.50
2023-01-19T02:12:57.247Z,2.50
2023-01-19T02:17:04.695Z,2.50
2023-01-19T02:21:53.092Z,2.60
2023-01-19T02:26:00.922Z,2.50
2023-01-19T02:30:10.104Z,2.50
2023-01-19T02:34:19.152Z,2.50
2023-01-19T02:38:28.351Z,2.50
2023-01-19T02:42:46.056Z,2.40
2023-01-19T02:46:56.177Z,2.40
2023-01-19T02:51:13.936Z,2.30
2023-01-19T02:55:28.300Z,2.20
2023-01-19T02:59:50.406Z,2.00
2023-01-19T03:04:10.082Z,1.90
2023-01-19T03:08:54.833Z,1.80
2023-01-19T03:13:32.159Z,1.70
2023-01-19T03:17:39.552Z,1.70
2023-01-19T03:21:50.830Z,1.70
2023-01-19T03:26:00.339Z,1.80
2023-01-19T03:30:13.119Z,1.80
2023-01-19T03:34:23.909Z,1.80
2023-01-19T03:38:34.769Z,1.80
2023-01-19T03:42:43.334Z,1.90
2023-01-19T03:46:50.704Z,1.80
2023-01-19T03:50:57.980Z,1.90
2023-01-19T03:55:06.483Z,1.90
2023-01-19T03:59:13.193Z,2.00
2023-01-19T04:03:19.964Z,2.00
2023-01-19T04:07:27.089Z,2.10
2023-01-19T04:11:33.929Z,2.10
2023-01-19T04:15:40.666Z,2.10
2023-01-19T04:19:47.466Z,2.10
2023-01-19T04:23:54.156Z,2.10
2023-01-19T04:28:01.145Z,2.10
2023-01-19T04:32:07.925Z,2.20
2023-01-19T04:36:14.619Z,2.20
2023-01-19T04:40:21.401Z,2.30
2023-01-19T04:44:28.588Z,2.40
2023-01-19T04:48:35.290Z,2.40
2023-01-19T04:52:42.025Z,2.50
2023-01-19T04:56:48.753Z,2.50
2023-01-19T05:00:55.484Z,2.60
2023-01-19T05:05:03.173Z,2.70
2023-01-19T05:09:13.147Z,2.70
2023-01-19T05:13:19.848Z,2.70
2023-01-19T05:17:26.516Z,2.70
2023-01-19T05:21:33.206Z,2.60
2023-01-19T05:25:39.889Z,2.60
2023-01-19T05:29:46.604Z,2.60
2023-01-19T05:33:53.248Z,2.60
2023-01-19T05:37:59.911Z,2.60
2023-01-19T05:42:06.688Z,2.60
2023-01-19T05:46:13.379Z,2.60
2023-01-19T05:50:20.199Z,2.50
2023-01-19T05:54:26.894Z,2.60
2023-01-19T05:58:35.361Z,2.60
2023-01-19T06:02:42.232Z,2.60
2023-01-19T06:06:49.997Z,2.60
2023-01-19T06:10:56.746Z,2.60
2023-01-19T06:15:03.612Z,2.60
2023-01-19T06:19:10.268Z,2.50
2023-01-19T06:23:16.910Z,2.50
2023-01-19T06:27:23.644Z,2.50
2023-01-19T06:31:30.380Z,2.60
2023-01-19T06:35:37.092Z,2.50
2023-01-19T06:39:45.317Z,2.40
2023-01-19T06:43:51.985Z,2.50
2023-01-19T06:47:58.651Z,2.50
2023-01-19T06:52:05.338Z,2.70
2023-01-19T06:56:12.052Z,2.80
2023-01-19T07:00:19.207Z,2.90
2023-01-19T07:04:27.043Z,2.90
2023-01-19T07:08:35.219Z,2.90
2023-01-19T07:12:42.349Z,2.90
2023-01-19T07:16:49.096Z,2.70
2023-01-19T07:20:57.900Z,2.80
2023-01-19T07:25:05.069Z,2.70
2023-01-19T07:29:12.797Z,2.60
2023-01-19T07:33:19.586Z,2.60
2023-01-19T07:37:26.255Z,2.60
2023-01-19T07:41:35.536Z,2.60
2023-01-19T07:45:42.802Z,2.50
2023-01-19T07:49:49.532Z,2.60
2023-01-19T07:53:57.995Z,2.50
2023-01-19T07:58:07.301Z,2.50
2023-01-19T08:02:16.367Z,2.60
2023-01-19T08:06:29.653Z,2.70
2023-01-19T08:10:36.335Z,2.70
2023-01-19T08:14:43.036Z,2.80
2023-01-19T08:18:49.761Z,2.80
2023-01-19T08:23:00.274Z,2.80
2023-01-19T08:27:09.787Z,2.90
2023-01-19T08:31:21.058Z,2.90
2023-01-19T08:35:28.433Z,3.10
2023-01-19T08:39:35.226Z,3.10
2023-01-19T08:43:41.912Z,3.00
2023-01-19T08:47:49.103Z,3.10
2023-01-19T08:51:58.251Z,3.10
2023-01-19T08:56:07.369Z,3.20
2023-01-19T09:00:14.710Z,3.20
2023-01-19T09:04:21.414Z,3.20
2023-01-19T09:08:28.111Z,3.30
2023-01-19T09:12:34.798Z,3.40
2023-01-19T09:16:41.451Z,3.60
2023-01-19T09:20:50.314Z,3.80
2023-01-19T09:24:57.037Z,3.90
2023-01-19T09:29:03.826Z,3.90
2023-01-19T09:33:13.479Z,3.80
2023-01-19T09:37:20.204Z,3.80
2023-01-19T09:41:27.137Z,3.90
2023-01-19T09:45:42.407Z,4.10
2023-01-19T09:50:00.949Z,3.70
2023-01-19T09:54:32.860Z,4.30
2023-01-19T09:58:40.782Z,4.40
2023-01-19T10:02:56.849Z,5.90
2023-01-19T10:07:17.027Z,4.80
2023-01-19T10:11:51.281Z,4.80
2023-01-19T10:16:18.081Z,5.00
2023-01-19T10:20:33.575Z,5.20
2023-01-19T10:24:44.161Z,5.30
2023-01-19T10:29:01.453Z,5.40
2023-01-19T10:33:11.135Z,6.70
2023-01-19T10:37:17.911Z,5.60
2023-01-19T10:41:43.066Z,6.60
2023-01-19T10:45:51.012Z,5.90
2023-01-19T10:49:57.867Z,6.00
2023-01-19T10:54:05.333Z,5.90
2023-01-19T10:58:34.877Z,5.90
2023-01-19T11:02:50.693Z,6.00
2023-01-19T11:07:35.166Z,6.10
2023-01-19T11:11:45.365Z,6.20
2023-01-19T11:15:57.575Z,6.20
2023-01-19T11:20:05.192Z,6.50
2023-01-19T11:24:16.427Z,6.50
2023-01-19T11:28:34.139Z,6.60
2023-01-19T11:32:41.953Z,6.70
2023-01-19T11:36:58.697Z,6.70
2023-01-19T11:41:06.882Z,6.70
2023-01-19T11:45:19.334Z,6.90
2023-01-19T11:49:55.595Z,6.90
2023-01-19T11:54:14.195Z,6.80
2023-01-19T11:58:21.258Z,7.60
2023-01-19T12:02:35.810Z,6.90
2023-01-19T12:06:47.708Z,7.00
2023-01-19T12:10:57.494Z,7.10
2023-01-19T12:15:18.440Z,7.00
2023-01-19T12:19:33.723Z,7.10
2023-01-19T12:24:05.624Z,7.10
2023-01-19T12:28:15.335Z,7.20
2023-01-19T12:32:34.279Z,7.00
2023-01-19T12:36:41.138Z,7.10
2023-01-19T12:40:47.864Z,7.10
2023-01-19T12:45:13.536Z,7.30
2023-01-19T12:49:31.222Z,7.70
2023-01-19T12:53:37.942Z,7.70
2023-01-19T12:58:07.630Z,7.60
2023-01-19T13:02:20.568Z,7.80
2023-01-19T13:06:49.221Z,7.80
2023-01-19T13:11:02.216Z,7.30
2023-01-19T13:15:28.503Z,7.30
2023-01-19T13:19:43.680Z,7.40
2023-01-19T13:23:50.395Z,7.30
2023-01-19T13:27:57.458Z,7.60
2023-01-19T13:32:15.946Z,7.50
2023-01-19T13:36:31.485Z,7.20
2023-01-19T13:40:41.038Z,7.00
2023-01-19T13:44:52.489Z,7.00
2023-01-19T13:49:03.986Z,7.40
2023-01-19T13:53:19.099Z,7.60
2023-01-19T13:57:39.360Z,7.80
2023-01-19T14:01:47.343Z,7.90
2023-01-19T14:05:55.162Z,8.80
2023-01-19T14:10:06.624Z,7.70
2023-01-19T14:14:27.884Z,7.70
2023-01-19T14:18:36.118Z,7.70
2023-01-19T14:22:46.895Z,7.70
2023-01-19T14:26:56.256Z,7.60
2023-01-19T14:31:24.581Z,7.40
2023-01-19T14:35:31.385Z,7.30
2023-01-19T14:39:38.068Z,7.20
2023-01-19T14:43:45.460Z,7.10
2023-01-19T14:47:59.588Z,7.10
2023-01-19T14:52:27.413Z,6.90
2023-01-19T14:56:34.309Z,6.70
2023-01-19T15:00:42.707Z,6.60
2023-01-19T15:04:51.441Z,6.40
2023-01-19T15:08:58.593Z,6.20
2023-01-19T15:13:05.549Z,6.00
2023-01-19T15:17:25.642Z,5.70
2023-01-19T15:21:33.709Z,5.50
2023-01-19T15:25:40.523Z,5.20
2023-01-19T15:29:47.221Z,5.10
2023-01-19T15:33:54.112Z,5.00
2023-01-19T15:38:00.810Z,5.00
2023-01-19T15:42:15.413Z,4.90
2023-01-19T15:46:23.688Z,4.90
2023-01-19T15:50:31.027Z,4.70
2023-01-19T15:54:37.797Z,4.60
2023-01-19T15:58:44.636Z,4.50
2023-01-19T16:02:52.521Z,4.40
2023-01-19T16:06:59.755Z,4.30
2023-01-19T16:11:08.545Z,4.10
2023-01-19T16:15:16.601Z,4.00
2023-01-19T16:19:38.323Z,3.80
2023-01-19T16:23:45.051Z,3.70
2023-01-19T16:27:51.778Z,3.60
2023-01-19T16:31:58.519Z,3.50
2023-01-19T16:36:22.677Z,3.40
2023-01-19T16:40:29.381Z,3.30
2023-01-19T16:44:36.046Z,3.20
2023-01-19T16:48:42.705Z,3.20
2023-01-19T16:52:50.635Z,3.10
2023-01-19T16:56:58.355Z,3.00
2023-01-19T17:01:20.190Z,2.90
2023-01-19T17:05:27.146Z,2.90
2023-01-19T17:09:34.090Z,2.80
2023-01-19T17:13:40.756Z,2.70
2023-01-19T17:17:47.500Z,2.70
2023-01-19T17:21:54.204Z,2.70
2023-01-19T17:26:01.045Z,2.60
2023-01-19T17:30:08.320Z,2.50
2023-01-19T17:34:15.005Z,2.40
2023-01-19T17:38:21.673Z,2.40
2023-01-19T17:42:28.371Z,2.40
2023-01-19T17:46:37.406Z,2.30
2023-01-19T17:50:44.793Z,2.40
2023-01-19T17:54:51.492Z,2.40
2023-01-19T17:58:59.063Z,2.30
2023-01-19T18:03:06.032Z,2.20
2023-01-19T18:07:12.715Z,2.10
2023-01-19T18:11:20.752Z,2.10
2023-01-19T18:15:27.662Z,2.00
2023-01-19T18:19:34.490Z,2.00
2023-01-19T18:23:43.392Z,1.90
2023-01-19T18:27:50.143Z,1.90
2023-01-19T18:31:56.943Z,1.90
2023-01-19T18:36:04.759Z,1.90
2023-01-19T18:40:12.302Z,1.90
2023-01-19T18:44:19.217Z,1.90
2023-01-19T18:48:26.319Z,1.80
2023-01-19T18:52:33.346Z,1.80
2023-01-19T18:56:40.027Z,1.70
2023-01-19T19:00:47.001Z,1.70
2023-01-19T19:04:53.717Z,1.70
2023-01-19T19:09:00.449Z,1.60
2023-01-19T19:13:07.818Z,1.50
2023-01-19T19:17:14.501Z,1.60
2023-01-19T19:21:25.164Z,1.60
2023-01-19T19:25:32.741Z,1.60
2023-01-19T19:29:39.920Z,1.50
2023-01-19T19:33:48.566Z,1.50
2023-01-19T19:37:57.581Z,1.50
2023-01-19T19:42:04.543Z,1.40
2023-01-19T19:46:13.976Z,1.40
2023-01-19T19:50:20.691Z,1.40
2023-01-19T19:54:27.471Z,1.40
2023-01-19T19:58:34.909Z,1.40
2023-01-19T20:02:41.654Z,1.50
2023-01-19T20:06:48.740Z,1.50
2023-01-19T20:10:55.435Z,1.50
2023-01-19T20:15:02.108Z,1.40
2023-01-19T20:19:08.901Z,1.50
2023-01-19T20:23:16.349Z,1.40
2023-01-19T20:27:23.013Z,1.40
2023-01-19T20:31:33.002Z,1.40
2023-01-19T20:35:39.744Z,1.40
2023-01-19T20:39:46.559Z,1.40
2023-01-19T20:43:53.363Z,1.30
2023-01-19T20:48:00.090Z,1.40
2023-01-19T20:52:06.860Z,1.40
2023-01-19T20:56:15.434Z,1.50
2023-01-19T21:00:22.196Z,1.50
2023-01-19T21:04:28.975Z,1.60
2023-01-19T21:08:36.425Z,1.70
2023-01-19T21:12:43.821Z,1.80
2023-01-19T21:16:50.636Z,1.90
2023-01-19T21:20:57.600Z,1.90
2023-01-19T21:25:04.741Z,1.90
2023-01-19T21:29:13.374Z,1.90
2023-01-19T21:33:21.464Z,2.00
2023-01-19T21:37:30.487Z,2.00
2023-01-19T21:41:39.836Z,2.00
2023-01-19T21:45:47.938Z,2.00
2023-01-19T21:49:54.929Z,2.00
2023-01-19T21:54:03.116Z,2.00
2023-01-19T21:58:09.798Z,2.10
2023-01-19T22:02:23.916Z,2.10
2023-01-19T22:06:40.340Z,2.00
2023-01-19T22:10:47.025Z,2.00
2023-01-19T22:14:53.739Z,1.90
2023-01-19T22:19:01.998Z,1.90
2023-01-19T22:23:08.744Z,1.80
2023-01-19T22:27:15.444Z,1.80
2023-01-19T22:31:23.260Z,1.80
2023-01-19T22:35:30.078Z,1.80
2023-01-19T22:39:36.918Z,1.80
2023-01-19T22:43:44.439Z,1.80
2023-01-19T22:47:51.142Z,2.00
2023-01-19T22:51:57.933Z,2.00
2023-01-19T22:56:31.714Z,1.90
2023-01-19T23:00:38.394Z,1.90
2023-01-19T23:04:45.045Z,1.70
2023-01-19T23:08:52.436Z,1.70
2023-01-19T23:12:59.116Z,1.70
2023-01-19T23:17:05.770Z,1.70
2023-01-19T23:21:18.269Z,1.90
2023-01-19T23:25:24.934Z,1.90
2023-01-19T23:29:31.618Z,2.00
2023-01-19T23:33:38.277Z,2.10
2023-01-19T23:37:45.014Z,2.20
2023-01-19T23:41:51.828Z,1.10
2023-01-19T23:46:06.627Z,2.30
2023-01-19T23:50:13.297Z,2.20
2023-01-19T23:54:20.057Z,2.20
2023-01-19T23:58:26.740Z,2.10
